Parris Island, South Carolina
Current Conditions -  °F | °C
As of 10:15 PM on Monday 26 Jan 2015 (Local Time) from KARW Reporting Station
Clear Clear  
Wind Chill: 38°   Ceiling: Unl
Heat Index: 45°   Visibility: 10mi
Dew Point: 34°   Wind: 14mph
Humidity: 66%   Direction: 280°W
Pressure: 29.82"   Gusts: 23mph
Location:  32.4123°N, 80.7058°W
Report Text: KARW 270315Z AUTO 28012G20KT 10SM CLR 07/01 A2982 RMK AO2
Loading
Personal Weather Stations






























Interactive Weather Map New forecast layout! Learn more

10-Day Weather Forecast

Advertisements
Track Severe Weather on mobile